sensor_id;sensor_type;location;lat;lon;timestamp;P1;durP1;ratioP1;P2;durP2;ratioP2
56413;SDS011;42318;48.452;19.526;2023-05-10T00:01:32;2.00;;;1.48;;
56413;SDS011;42318;48.452;19.526;2023-05-10T00:09:02;2.75;;;1.83;;
56413;SDS011;42318;48.452;19.526;2023-05-10T00:16:34;3.08;;;1.65;;
56413;SDS011;42318;48.452;19.526;2023-05-10T00:24:04;2.50;;;1.48;;
56413;SDS011;42318;48.452;19.526;2023-05-10T00:31:36;2.30;;;1.27;;
56413;SDS011;42318;48.452;19.526;2023-05-10T00:39:06;2.63;;;1.58;;
56413;SDS011;42318;48.452;19.526;2023-05-10T00:46:38;2.20;;;1.45;;
56413;SDS011;42318;48.452;19.526;2023-05-10T00:54:10;2.08;;;1.55;;
56413;SDS011;42318;48.452;19.526;2023-05-10T01:01:43;1.90;;;1.35;;
56413;SDS011;42318;48.452;19.526;2023-05-10T01:09:14;2.38;;;1.40;;
56413;SDS011;42318;48.452;19.526;2023-05-10T01:16:46;4.40;;;1.67;;
56413;SDS011;42318;48.452;19.526;2023-05-10T01:24:25;1.90;;;1.50;;
56413;SDS011;42318;48.452;19.526;2023-05-10T01:32:02;2.10;;;1.35;;
56413;SDS011;42318;48.452;19.526;2023-05-10T01:39:54;2.42;;;1.40;;
56413;SDS011;42318;48.452;19.526;2023-05-10T01:55:15;1.90;;;1.40;;
56413;SDS011;42318;48.452;19.526;2023-05-10T02:02:48;2.15;;;1.58;;
56413;SDS011;42318;48.452;19.526;2023-05-10T02:17:52;2.00;;;1.25;;
56413;SDS011;42318;48.452;19.526;2023-05-10T02:25:25;2.08;;;1.23;;
56413;SDS011;42318;48.452;19.526;2023-05-10T02:32:59;1.92;;;1.25;;
56413;SDS011;42318;48.452;19.526;2023-05-10T02:40:30;1.90;;;1.25;;
56413;SDS011;42318;48.452;19.526;2023-05-10T02:48:03;2.72;;;1.25;;
56413;SDS011;42318;48.452;19.526;2023-05-10T02:55:37;1.27;;;1.00;;
56413;SDS011;42318;48.452;19.526;2023-05-10T03:03:10;2.08;;;1.42;;
56413;SDS011;42318;48.452;19.526;2023-05-10T03:10:45;2.33;;;1.17;;
56413;SDS011;42318;48.452;19.526;2023-05-10T03:18:28;1.52;;;1.20;;
56413;SDS011;42318;48.452;19.526;2023-05-10T03:26:04;1.45;;;1.20;;
56413;SDS011;42318;48.452;19.526;2023-05-10T03:33:35;1.67;;;1.20;;
56413;SDS011;42318;48.452;19.526;2023-05-10T03:41:15;3.00;;;1.23;;
56413;SDS011;42318;48.452;19.526;2023-05-10T03:48:46;2.20;;;1.50;;
56413;SDS011;42318;48.452;19.526;2023-05-10T03:56:17;1.80;;;1.30;;
56413;SDS011;42318;48.452;19.526;2023-05-10T04:03:48;2.20;;;1.40;;
56413;SDS011;42318;48.452;19.526;2023-05-10T04:11:18;1.92;;;1.20;;
56413;SDS011;42318;48.452;19.526;2023-05-10T04:18:52;1.77;;;1.30;;
56413;SDS011;42318;48.452;19.526;2023-05-10T04:26:23;1.67;;;1.20;;
56413;SDS011;42318;48.452;19.526;2023-05-10T04:33:55;1.77;;;1.35;;
56413;SDS011;42318;48.452;19.526;2023-05-10T04:41:26;1.92;;;1.13;;
56413;SDS011;42318;48.452;19.526;2023-05-10T04:48:56;2.13;;;1.42;;
56413;SDS011;42318;48.452;19.526;2023-05-10T04:56:27;1.95;;;1.42;;
56413;SDS011;42318;48.452;19.526;2023-05-10T05:03:58;1.73;;;1.33;;
56413;SDS011;42318;48.452;19.526;2023-05-10T05:11:29;2.00;;;1.40;;
56413;SDS011;42318;48.452;19.526;2023-05-10T05:19:00;2.25;;;1.20;;
56413;SDS011;42318;48.452;19.526;2023-05-10T05:26:31;2.25;;;1.23;;
56413;SDS011;42318;48.452;19.526;2023-05-10T05:34:02;1.90;;;1.30;;
56413;SDS011;42318;48.452;19.526;2023-05-10T05:41:33;2.40;;;1.40;;
56413;SDS011;42318;48.452;19.526;2023-05-10T05:49:04;2.00;;;1.23;;
56413;SDS011;42318;48.452;19.526;2023-05-10T05:56:35;1.95;;;1.40;;
56413;SDS011;42318;48.452;19.526;2023-05-10T06:04:05;1.38;;;1.17;;
56413;SDS011;42318;48.452;19.526;2023-05-10T06:11:36;1.67;;;1.10;;
56413;SDS011;42318;48.452;19.526;2023-05-10T06:19:07;2.28;;;1.45;;
56413;SDS011;42318;48.452;19.526;2023-05-10T06:26:38;2.25;;;1.35;;
56413;SDS011;42318;48.452;19.526;2023-05-10T06:34:09;1.30;;;1.05;;
56413;SDS011;42318;48.452;19.526;2023-05-10T06:41:40;1.75;;;1.30;;
56413;SDS011;42318;48.452;19.526;2023-05-10T06:49:10;1.55;;;1.20;;
56413;SDS011;42318;48.452;19.526;2023-05-10T06:56:41;1.83;;;1.30;;
56413;SDS011;42318;48.452;19.526;2023-05-10T07:04:12;1.70;;;1.20;;
56413;SDS011;42318;48.452;19.526;2023-05-10T07:11:43;1.45;;;1.13;;
56413;SDS011;42318;48.452;19.526;2023-05-10T07:19:15;1.58;;;1.20;;
56413;SDS011;42318;48.452;19.526;2023-05-10T07:26:45;1.58;;;1.17;;
56413;SDS011;42318;48.452;19.526;2023-05-10T07:34:16;2.15;;;1.13;;
56413;SDS011;42318;48.452;19.526;2023-05-10T07:41:47;2.38;;;1.40;;
56413;SDS011;42318;48.452;19.526;2023-05-10T07:49:18;2.25;;;1.27;;
56413;SDS011;42318;48.452;19.526;2023-05-10T07:56:49;2.05;;;1.40;;
56413;SDS011;42318;48.452;19.526;2023-05-10T08:04:20;1.67;;;1.10;;
56413;SDS011;42318;48.452;19.526;2023-05-10T08:11:51;1.67;;;1.20;;
56413;SDS011;42318;48.452;19.526;2023-05-10T08:19:21;1.90;;;1.25;;
56413;SDS011;42318;48.452;19.526;2023-05-10T08:26:53;2.35;;;1.52;;
56413;SDS011;42318;48.452;19.526;2023-05-10T08:34:23;1.70;;;1.30;;
56413;SDS011;42318;48.452;19.526;2023-05-10T08:41:55;3.35;;;1.55;;
56413;SDS011;42318;48.452;19.526;2023-05-10T08:49:31;1.80;;;1.23;;
56413;SDS011;42318;48.452;19.526;2023-05-10T08:57:03;2.23;;;1.33;;
56413;SDS011;42318;48.452;19.526;2023-05-10T09:04:34;1.73;;;1.05;;
56413;SDS011;42318;48.452;19.526;2023-05-10T09:12:05;1.88;;;1.20;;
56413;SDS011;42318;48.452;19.526;2023-05-10T09:19:37;2.00;;;1.40;;
56413;SDS011;42318;48.452;19.526;2023-05-10T09:27:08;1.23;;;1.10;;
56413;SDS011;42318;48.452;19.526;2023-05-10T09:34:38;1.75;;;1.33;;
56413;SDS011;42318;48.452;19.526;2023-05-10T09:49:42;2.03;;;1.40;;
56413;SDS011;42318;48.452;19.526;2023-05-10T09:57:22;1.55;;;0.90;;
56413;SDS011;42318;48.452;19.526;2023-05-10T10:04:53;2.47;;;1.20;;
56413;SDS011;42318;48.452;19.526;2023-05-10T10:12:25;2.10;;;1.43;;
56413;SDS011;42318;48.452;19.526;2023-05-10T10:19:57;2.77;;;1.57;;
56413;SDS011;42318;48.452;19.526;2023-05-10T10:35:18;1.80;;;1.40;;
56413;SDS011;42318;48.452;19.526;2023-05-10T10:42:49;1.42;;;1.20;;
56413;SDS011;42318;48.452;19.526;2023-05-10T10:50:23;1.65;;;1.20;;
56413;SDS011;42318;48.452;19.526;2023-05-10T10:57:57;2.17;;;1.13;;
56413;SDS011;42318;48.452;19.526;2023-05-10T11:05:41;1.73;;;1.10;;
56413;SDS011;42318;48.452;19.526;2023-05-10T11:13:14;1.77;;;1.27;;
56413;SDS011;42318;48.452;19.526;2023-05-10T11:20:52;1.77;;;1.40;;
56413;SDS011;42318;48.452;19.526;2023-05-10T11:28:23;1.38;;;1.27;;
56413;SDS011;42318;48.452;19.526;2023-05-10T11:35:54;2.55;;;1.52;;
56413;SDS011;42318;48.452;19.526;2023-05-10T11:43:25;1.58;;;1.20;;
56413;SDS011;42318;48.452;19.526;2023-05-10T11:51:01;1.52;;;1.00;;
56413;SDS011;42318;48.452;19.526;2023-05-10T11:58:33;2.17;;;1.10;;
56413;SDS011;42318;48.452;19.526;2023-05-10T12:13:37;2.38;;;1.30;;
56413;SDS011;42318;48.452;19.526;2023-05-10T12:21:12;1.17;;;0.90;;
56413;SDS011;42318;48.452;19.526;2023-05-10T12:28:45;2.03;;;1.13;;
56413;SDS011;42318;48.452;19.526;2023-05-10T12:36:16;1.20;;;1.02;;
56413;SDS011;42318;48.452;19.526;2023-05-10T12:43:48;2.13;;;1.20;;
56413;SDS011;42318;48.452;19.526;2023-05-10T12:51:19;1.77;;;1.20;;
56413;SDS011;42318;48.452;19.526;2023-05-10T12:58:52;2.60;;;1.40;;
56413;SDS011;42318;48.452;19.526;2023-05-10T13:06:23;1.73;;;1.10;;
56413;SDS011;42318;48.452;19.526;2023-05-10T13:13:53;2.53;;;1.20;;
56413;SDS011;42318;48.452;19.526;2023-05-10T13:21:24;1.83;;;0.90;;
56413;SDS011;42318;48.452;19.526;2023-05-10T13:28:55;2.65;;;1.10;;
56413;SDS011;42318;48.452;19.526;2023-05-10T13:36:26;2.00;;;1.30;;
56413;SDS011;42318;48.452;19.526;2023-05-10T13:43:57;1.80;;;1.15;;
56413;SDS011;42318;48.452;19.526;2023-05-10T13:51:28;1.83;;;1.17;;
56413;SDS011;42318;48.452;19.526;2023-05-10T13:58:59;1.40;;;1.10;;
56413;SDS011;42318;48.452;19.526;2023-05-10T14:06:30;1.85;;;1.40;;
56413;SDS011;42318;48.452;19.526;2023-05-10T14:14:01;2.42;;;1.20;;
56413;SDS011;42318;48.452;19.526;2023-05-10T14:21:31;2.65;;;1.73;;
56413;SDS011;42318;48.452;19.526;2023-05-10T14:29:02;2.50;;;1.83;;
56413;SDS011;42318;48.452;19.526;2023-05-10T14:36:33;3.40;;;1.85;;
56413;SDS011;42318;48.452;19.526;2023-05-10T14:44:04;2.65;;;1.80;;
56413;SDS011;42318;48.452;19.526;2023-05-10T14:51:35;2.45;;;1.90;;
56413;SDS011;42318;48.452;19.526;2023-05-10T14:59:07;3.53;;;2.43;;
56413;SDS011;42318;48.452;19.526;2023-05-10T15:06:38;3.78;;;2.47;;
56413;SDS011;42318;48.452;19.526;2023-05-10T15:14:09;3.65;;;2.38;;
56413;SDS011;42318;48.452;19.526;2023-05-10T15:21:39;3.30;;;2.25;;
56413;SDS011;42318;48.452;19.526;2023-05-10T15:29:12;4.35;;;2.40;;
56413;SDS011;42318;48.452;19.526;2023-05-10T15:36:50;2.85;;;2.15;;
56413;SDS011;42318;48.452;19.526;2023-05-10T15:44:20;2.88;;;2.15;;
56413;SDS011;42318;48.452;19.526;2023-05-10T15:51:52;5.55;;;1.83;;
56413;SDS011;42318;48.452;19.526;2023-05-10T15:59:24;2.83;;;1.80;;
56413;SDS011;42318;48.452;19.526;2023-05-10T16:06:55;3.50;;;2.05;;
56413;SDS011;42318;48.452;19.526;2023-05-10T16:14:25;2.92;;;1.83;;
56413;SDS011;42318;48.452;19.526;2023-05-10T16:21:56;2.17;;;1.67;;
56413;SDS011;42318;48.452;19.526;2023-05-10T16:29:27;2.55;;;1.58;;
56413;SDS011;42318;48.452;19.526;2023-05-10T16:36:58;6.00;;;2.35;;
56413;SDS011;42318;48.452;19.526;2023-05-10T16:44:28;2.78;;;1.90;;
56413;SDS011;42318;48.452;19.526;2023-05-10T16:51:59;2.67;;;1.98;;
56413;SDS011;42318;48.452;19.526;2023-05-10T16:59:30;3.65;;;1.90;;
56413;SDS011;42318;48.452;19.526;2023-05-10T17:07:01;2.50;;;1.70;;
56413;SDS011;42318;48.452;19.526;2023-05-10T17:14:32;2.38;;;1.60;;
56413;SDS011;42318;48.452;19.526;2023-05-10T17:22:03;2.40;;;1.88;;
56413;SDS011;42318;48.452;19.526;2023-05-10T17:29:34;2.30;;;1.73;;
56413;SDS011;42318;48.452;19.526;2023-05-10T17:37:07;3.80;;;1.65;;
56413;SDS011;42318;48.452;19.526;2023-05-10T17:44:38;2.40;;;1.60;;
56413;SDS011;42318;48.452;19.526;2023-05-10T17:52:09;2.60;;;1.67;;
56413;SDS011;42318;48.452;19.526;2023-05-10T17:59:40;2.50;;;2.00;;
56413;SDS011;42318;48.452;19.526;2023-05-10T18:07:11;2.40;;;1.50;;
56413;SDS011;42318;48.452;19.526;2023-05-10T18:14:42;3.58;;;1.80;;
56413;SDS011;42318;48.452;19.526;2023-05-10T18:22:12;2.13;;;1.42;;
56413;SDS011;42318;48.452;19.526;2023-05-10T18:29:43;2.67;;;1.50;;
56413;SDS011;42318;48.452;19.526;2023-05-10T18:37:14;4.07;;;1.90;;
56413;SDS011;42318;48.452;19.526;2023-05-10T18:44:45;1.83;;;1.40;;
56413;SDS011;42318;48.452;19.526;2023-05-10T18:52:16;2.17;;;1.60;;
56413;SDS011;42318;48.452;19.526;2023-05-10T18:59:48;5.05;;;1.40;;
56413;SDS011;42318;48.452;19.526;2023-05-10T19:07:18;3.00;;;1.80;;
56413;SDS011;42318;48.452;19.526;2023-05-10T19:14:49;1.55;;;1.33;;
56413;SDS011;42318;48.452;19.526;2023-05-10T19:22:20;2.28;;;1.42;;
56413;SDS011;42318;48.452;19.526;2023-05-10T19:29:51;2.03;;;1.38;;
56413;SDS011;42318;48.452;19.526;2023-05-10T19:37:22;2.25;;;1.55;;
56413;SDS011;42318;48.452;19.526;2023-05-10T19:44:52;2.22;;;1.60;;
56413;SDS011;42318;48.452;19.526;2023-05-10T19:52:23;2.65;;;1.33;;
56413;SDS011;42318;48.452;19.526;2023-05-10T19:59:54;1.83;;;1.50;;
56413;SDS011;42318;48.452;19.526;2023-05-10T20:07:25;2.10;;;1.35;;
56413;SDS011;42318;48.452;19.526;2023-05-10T20:14:55;2.58;;;1.67;;
56413;SDS011;42318;48.452;19.526;2023-05-10T20:22:26;2.47;;;1.13;;
56413;SDS011;42318;48.452;19.526;2023-05-10T20:29:57;2.92;;;1.48;;
56413;SDS011;42318;48.452;19.526;2023-05-10T20:37:28;2.10;;;1.50;;
56413;SDS011;42318;48.452;19.526;2023-05-10T20:44:59;2.30;;;1.60;;
56413;SDS011;42318;48.452;19.526;2023-05-10T20:52:29;1.77;;;1.30;;
56413;SDS011;42318;48.452;19.526;2023-05-10T21:00:00;2.25;;;1.30;;
56413;SDS011;42318;48.452;19.526;2023-05-10T21:07:31;1.80;;;1.38;;
56413;SDS011;42318;48.452;19.526;2023-05-10T21:15:02;1.25;;;1.15;;
56413;SDS011;42318;48.452;19.526;2023-05-10T21:22:33;1.88;;;1.33;;
56413;SDS011;42318;48.452;19.526;2023-05-10T21:30:04;1.38;;;1.10;;
56413;SDS011;42318;48.452;19.526;2023-05-10T21:37:36;1.80;;;1.30;;
56413;SDS011;42318;48.452;19.526;2023-05-10T21:45:06;1.35;;;1.05;;
56413;SDS011;42318;48.452;19.526;2023-05-10T21:52:37;1.58;;;1.10;;
56413;SDS011;42318;48.452;19.526;2023-05-10T22:00:09;1.75;;;1.08;;
56413;SDS011;42318;48.452;19.526;2023-05-10T22:07:40;2.37;;;1.20;;
56413;SDS011;42318;48.452;19.526;2023-05-10T22:15:11;1.98;;;1.55;;
56413;SDS011;42318;48.452;19.526;2023-05-10T22:22:42;2.03;;;1.38;;
56413;SDS011;42318;48.452;19.526;2023-05-10T22:30:13;3.40;;;1.33;;
56413;SDS011;42318;48.452;19.526;2023-05-10T22:37:44;1.52;;;1.10;;
56413;SDS011;42318;48.452;19.526;2023-05-10T22:45:15;1.73;;;1.30;;
56413;SDS011;42318;48.452;19.526;2023-05-10T22:52:46;1.88;;;1.33;;
56413;SDS011;42318;48.452;19.526;2023-05-10T23:00:17;1.52;;;1.25;;
56413;SDS011;42318;48.452;19.526;2023-05-10T23:07:48;1.33;;;1.20;;
56413;SDS011;42318;48.452;19.526;2023-05-10T23:15:22;2.60;;;1.10;;
56413;SDS011;42318;48.452;19.526;2023-05-10T23:22:53;1.52;;;1.10;;
56413;SDS011;42318;48.452;19.526;2023-05-10T23:30:25;1.75;;;1.10;;
56413;SDS011;42318;48.452;19.526;2023-05-10T23:37:56;1.63;;;1.02;;
56413;SDS011;42318;48.452;19.526;2023-05-10T23:45:27;1.80;;;1.23;;
56413;SDS011;42318;48.452;19.526;2023-05-10T23:52:57;1.33;;;1.05;;
